sensor_id;sensor_type;location;lat;lon;timestamp;pressure;altitude;pressure_sealevel;temperature;humidity
44044;BME280;29709;52.396;16.796;2022-08-03T00:00:33;101881.40;;;20.31;61.79
44044;BME280;29709;52.396;16.796;2022-08-03T00:03:40;101885.04;;;20.31;63.37
44044;BME280;29709;52.396;16.796;2022-08-03T00:06:44;101890.45;;;20.33;63.15
44044;BME280;29709;52.396;16.796;2022-08-03T00:09:49;101892.17;;;20.34;63.17
44044;BME280;29709;52.396;16.796;2022-08-03T00:12:53;101886.80;;;20.32;61.56
44044;BME280;29709;52.396;16.796;2022-08-03T00:15:58;101888.27;;;20.28;63.55
44044;BME280;29709;52.396;16.796;2022-08-03T00:19:02;101883.54;;;20.29;63.20
44044;BME280;29709;52.396;16.796;2022-08-03T00:22:36;101889.98;;;20.29;61.49
44044;BME280;29709;52.396;16.796;2022-08-03T00:25:39;101885.90;;;20.25;63.99
44044;BME280;29709;52.396;16.796;2022-08-03T00:28:43;101886.05;;;20.17;64.31
44044;BME280;29709;52.396;16.796;2022-08-03T00:31:51;101882.61;;;20.15;64.22
44044;BME280;29709;52.396;16.796;2022-08-03T00:34:55;101884.34;;;20.16;64.11
44044;BME280;29709;52.396;16.796;2022-08-03T00:38:02;101886.05;;;20.17;63.80
44044;BME280;29709;52.396;16.796;2022-08-03T00:41:07;101881.96;;;20.13;64.72
44044;BME280;29709;52.396;16.796;2022-08-03T00:44:10;101886.21;;;20.09;64.43
44044;BME280;29709;52.396;16.796;2022-08-03T00:47:39;101891.13;;;20.07;63.78
44044;BME280;29709;52.396;16.796;2022-08-03T00:50:42;101880.60;;;20.02;64.88
44044;BME280;29709;52.396;16.796;2022-08-03T00:53:49;101871.55;;;20.00;65.58
44044;BME280;29709;52.396;16.796;2022-08-03T00:56:53;101877.99;;;20.01;65.18
44044;BME280;29709;52.396;16.796;2022-08-03T01:00:04;101877.80;;;20.02;65.11
44044;BME280;29709;52.396;16.796;2022-08-03T01:03:10;101874.40;;;20.07;64.15
44044;BME280;29709;52.396;16.796;2022-08-03T01:06:24;101879.98;;;20.07;64.86
44044;BME280;29709;52.396;16.796;2022-08-03T01:10:00;101874.40;;;20.07;64.97
44044;BME280;29709;52.396;16.796;2022-08-03T01:16:27;101870.11;;;20.11;64.76
44044;BME280;29709;52.396;16.796;2022-08-03T01:19:42;101864.14;;;20.14;64.73
44044;BME280;29709;52.396;16.796;2022-08-03T01:32:45;101853.63;;;20.16;64.60
44044;BME280;29709;52.396;16.796;2022-08-03T01:36:01;101848.70;;;20.18;62.48
44044;BME280;29709;52.396;16.796;2022-08-03T01:39:08;101851.06;;;20.21;63.78
44044;BME280;29709;52.396;16.796;2022-08-03T01:42:18;101850.25;;;20.27;64.16
44044;BME280;29709;52.396;16.796;2022-08-03T01:45:26;101849.82;;;20.30;64.08
44044;BME280;29709;52.396;16.796;2022-08-03T01:48:35;101855.02;;;20.33;63.84
44044;BME280;29709;52.396;16.796;2022-08-03T01:51:41;101849.45;;;20.40;63.34
44044;BME280;29709;52.396;16.796;2022-08-03T01:54:49;101846.08;;;20.44;61.37
44044;BME280;29709;52.396;16.796;2022-08-03T01:57:55;101847.59;;;20.47;63.32
44044;BME280;29709;52.396;16.796;2022-08-03T02:01:03;101838.99;;;20.49;62.91
44044;BME280;29709;52.396;16.796;2022-08-03T02:04:08;101846.52;;;20.48;64.51
44044;BME280;29709;52.396;16.796;2022-08-03T02:07:14;101835.98;;;20.50;63.63
44044;BME280;29709;52.396;16.796;2022-08-03T02:10:20;101848.49;;;20.54;61.84
44044;BME280;29709;52.396;16.796;2022-08-03T02:13:33;101831.91;;;20.53;61.88
44044;BME280;29709;52.396;16.796;2022-08-03T02:23:01;101826.75;;;20.50;62.54
44044;BME280;29709;52.396;16.796;2022-08-03T02:26:30;101837.27;;;20.48;62.75
44044;BME280;29709;52.396;16.796;2022-08-03T02:29:37;101828.90;;;20.48;63.29
44044;BME280;29709;52.396;16.796;2022-08-03T02:32:50;101822.03;;;20.50;63.25
44044;BME280;29709;52.396;16.796;2022-08-03T02:35:56;101828.08;;;20.54;62.53
44044;BME280;29709;52.396;16.796;2022-08-03T02:39:03;101820.52;;;20.48;64.08
44044;BME280;29709;52.396;16.796;2022-08-03T02:42:13;101819.67;;;20.47;62.97
44044;BME280;29709;52.396;16.796;2022-08-03T02:45:27;101821.59;;;20.46;64.49
44044;BME280;29709;52.396;16.796;2022-08-03T02:48:33;101824.61;;;20.52;62.52
44044;BME280;29709;52.396;16.796;2022-08-03T02:51:41;101819.02;;;20.52;63.21
44044;BME280;29709;52.396;16.796;2022-08-03T02:54:51;101821.16;;;20.50;63.78
44044;BME280;29709;52.396;16.796;2022-08-03T02:57:56;101822.03;;;20.50;63.83
44044;BME280;29709;52.396;16.796;2022-08-03T03:01:01;101825.29;;;20.54;63.46
44044;BME280;29709;52.396;16.796;2022-08-03T03:04:31;101830.88;;;20.54;63.53
44044;BME280;29709;52.396;16.796;2022-08-03T03:07:36;101828.26;;;20.52;63.34
44044;BME280;29709;52.396;16.796;2022-08-03T03:10:48;101817.09;;;20.52;63.75
44044;BME280;29709;52.396;16.796;2022-08-03T03:13:55;101829.37;;;20.58;62.83
44044;BME280;29709;52.396;16.796;2022-08-03T03:17:00;101832.38;;;20.56;63.88
44044;BME280;29709;52.396;16.796;2022-08-03T03:20:05;101828.73;;;20.56;62.73
44044;BME280;29709;52.396;16.796;2022-08-03T03:23:16;101833.23;;;20.57;63.57
44044;BME280;29709;52.396;16.796;2022-08-03T03:26:19;101827.22;;;20.60;63.69
44044;BME280;29709;52.396;16.796;2022-08-03T03:29:50;101841.40;;;20.58;63.92
44044;BME280;29709;52.396;16.796;2022-08-03T03:32:54;101835.38;;;20.61;63.18
44044;BME280;29709;52.396;16.796;2022-08-03T03:36:02;101830.45;;;20.63;62.80
44044;BME280;29709;52.396;16.796;2022-08-03T03:39:06;101834.77;;;20.66;63.11
44044;BME280;29709;52.396;16.796;2022-08-03T03:42:09;101832.63;;;20.68;62.55
44044;BME280;29709;52.396;16.796;2022-08-03T03:45:15;101819.92;;;20.59;62.99
44044;BME280;29709;52.396;16.796;2022-08-03T03:48:19;101837.78;;;20.64;63.24
44044;BME280;29709;52.396;16.796;2022-08-03T03:51:23;101837.57;;;20.66;63.39
44044;BME280;29709;52.396;16.796;2022-08-03T03:54:26;101848.52;;;20.67;62.83
44044;BME280;29709;52.396;16.796;2022-08-03T03:58:05;101844.02;;;20.66;63.04
44044;BME280;29709;52.396;16.796;2022-08-03T04:01:09;101839.49;;;20.72;64.21
44044;BME280;29709;52.396;16.796;2022-08-03T04:04:12;101848.99;;;20.78;63.90
44044;BME280;29709;52.396;16.796;2022-08-03T04:07:37;101845.12;;;20.79;63.39
44044;BME280;29709;52.396;16.796;2022-08-03T04:14:16;101844.05;;;20.80;63.36
44044;BME280;29709;52.396;16.796;2022-08-03T04:17:22;101849.84;;;20.78;63.43
44044;BME280;29709;52.396;16.796;2022-08-03T04:20:31;101853.71;;;20.84;62.92
44044;BME280;29709;52.396;16.796;2022-08-03T04:23:46;101845.80;;;20.87;63.81
44044;BME280;29709;52.396;16.796;2022-08-03T04:26:51;101847.73;;;20.93;62.53
44044;BME280;29709;52.396;16.796;2022-08-03T04:29:56;101851.84;;;20.97;63.57
44044;BME280;29709;52.396;16.796;2022-08-03T04:33:02;101855.09;;;21.08;62.25
44044;BME280;29709;52.396;16.796;2022-08-03T04:36:08;101852.30;;;21.08;63.17
44044;BME280;29709;52.396;16.796;2022-08-03T04:39:28;101854.22;;;21.14;62.75
44044;BME280;29709;52.396;16.796;2022-08-03T04:42:30;101861.34;;;21.16;63.07
44044;BME280;29709;52.396;16.796;2022-08-03T04:45:35;101852.95;;;21.23;62.63
44044;BME280;29709;52.396;16.796;2022-08-03T04:49:05;101860.04;;;21.25;62.79
44044;BME280;29709;52.396;16.796;2022-08-03T04:52:10;101857.30;;;21.32;63.39
44044;BME280;29709;52.396;16.796;2022-08-03T04:58:33;101860.31;;;21.64;62.68
44044;BME280;29709;52.396;16.796;2022-08-03T05:01:38;101852.13;;;21.82;62.43
44044;BME280;29709;52.396;16.796;2022-08-03T05:04:42;101856.62;;;22.03;61.45
44044;BME280;29709;52.396;16.796;2022-08-03T05:07:49;101851.91;;;22.10;61.11
44044;BME280;29709;52.396;16.796;2022-08-03T05:11:17;101849.52;;;22.13;61.52
44044;BME280;29709;52.396;16.796;2022-08-03T05:14:21;101854.44;;;22.25;60.98
44044;BME280;29709;52.396;16.796;2022-08-03T05:17:29;101860.66;;;22.33;60.58
44044;BME280;29709;52.396;16.796;2022-08-03T05:20:32;101855.45;;;22.43;60.10
44044;BME280;29709;52.396;16.796;2022-08-03T05:23:37;101858.03;;;22.45;60.49
44044;BME280;29709;52.396;16.796;2022-08-03T05:26:41;101863.16;;;22.55;60.27
44044;BME280;29709;52.396;16.796;2022-08-03T05:29:49;101862.45;;;22.72;59.94
44044;BME280;29709;52.396;16.796;2022-08-03T05:32:55;101866.61;;;23.01;59.34
44044;BME280;29709;52.396;16.796;2022-08-03T05:36:26;101866.41;;;23.35;59.19
44044;BME280;29709;52.396;16.796;2022-08-03T05:39:30;101869.55;;;23.76;57.43
44044;BME280;29709;52.396;16.796;2022-08-03T05:42:36;101869.36;;;24.14;56.72
44044;BME280;29709;52.396;16.796;2022-08-03T05:45:40;101859.96;;;24.45;55.47
44044;BME280;29709;52.396;16.796;2022-08-03T05:48:43;101861.60;;;24.71;55.17
44044;BME280;29709;52.396;16.796;2022-08-03T05:51:49;101866.22;;;25.14;54.83
44044;BME280;29709;52.396;16.796;2022-08-03T05:54:58;101861.50;;;25.38;52.76
44044;BME280;29709;52.396;16.796;2022-08-03T05:58:10;101869.06;;;25.79;52.34
44044;BME280;29709;52.396;16.796;2022-08-03T06:01:14;101875.31;;;26.28;52.33
44044;BME280;29709;52.396;16.796;2022-08-03T06:04:26;101870.86;;;26.56;51.24
44044;BME280;29709;52.396;16.796;2022-08-03T06:07:59;101869.54;;;26.58;50.52
44044;BME280;29709;52.396;16.796;2022-08-03T06:11:03;101866.24;;;26.50;49.75
44044;BME280;29709;52.396;16.796;2022-08-03T06:14:12;101869.77;;;26.33;48.57
44044;BME280;29709;52.396;16.796;2022-08-03T06:17:17;101869.05;;;26.14;49.60
44044;BME280;29709;52.396;16.796;2022-08-03T06:20:21;101872.99;;;26.02;49.88
44044;BME280;29709;52.396;16.796;2022-08-03T06:23:28;101866.00;;;26.04;50.38
44044;BME280;29709;52.396;16.796;2022-08-03T06:26:32;101868.59;;;26.17;50.58
44044;BME280;29709;52.396;16.796;2022-08-03T06:30:03;101868.67;;;26.34;50.24
44044;BME280;29709;52.396;16.796;2022-08-03T06:33:06;101874.66;;;26.61;49.23
44044;BME280;29709;52.396;16.796;2022-08-03T06:39:35;101873.09;;;26.54;47.75
44044;BME280;29709;52.396;16.796;2022-08-03T06:42:39;101877.89;;;26.41;47.96
44044;BME280;29709;52.396;16.796;2022-08-03T06:45:42;101877.37;;;26.33;48.57
44044;BME280;29709;52.396;16.796;2022-08-03T06:49:13;101878.98;;;26.29;49.05
44044;BME280;29709;52.396;16.796;2022-08-03T06:52:16;101870.61;;;26.57;48.81
44044;BME280;29709;52.396;16.796;2022-08-03T06:58:34;101872.92;;;27.29;47.32
44044;BME280;29709;52.396;16.796;2022-08-03T07:01:38;101871.51;;;27.60;46.96
44044;BME280;29709;52.396;16.796;2022-08-03T07:04:41;101865.98;;;27.82;46.45
44044;BME280;29709;52.396;16.796;2022-08-03T07:07:48;101872.75;;;27.98;45.63
44044;BME280;29709;52.396;16.796;2022-08-03T07:11:19;101878.39;;;28.14;45.74
44044;BME280;29709;52.396;16.796;2022-08-03T07:14:22;101872.52;;;28.21;44.67
44044;BME280;29709;52.396;16.796;2022-08-03T07:17:25;101877.83;;;28.34;45.64
44044;BME280;29709;52.396;16.796;2022-08-03T07:20:29;101879.09;;;28.43;45.25
44044;BME280;29709;52.396;16.796;2022-08-03T07:23:32;101884.78;;;28.27;44.44
44044;BME280;29709;52.396;16.796;2022-08-03T07:26:36;101885.33;;;28.07;44.87
44044;BME280;29709;52.396;16.796;2022-08-03T07:29:43;101882.14;;;28.03;45.80
44044;BME280;29709;52.396;16.796;2022-08-03T07:32:47;101885.63;;;28.27;45.07
44044;BME280;29709;52.396;16.796;2022-08-03T07:35:53;101878.18;;;28.21;44.51
44044;BME280;29709;52.396;16.796;2022-08-03T07:39:21;101885.23;;;28.35;45.31
44044;BME280;29709;52.396;16.796;2022-08-03T07:42:28;101887.13;;;28.73;45.11
44044;BME280;29709;52.396;16.796;2022-08-03T07:45:31;101877.61;;;29.01;44.54
44044;BME280;29709;52.396;16.796;2022-08-03T07:48:37;101873.51;;;29.14;44.16
44044;BME280;29709;52.396;16.796;2022-08-03T07:51:44;101880.82;;;29.37;44.03
44044;BME280;29709;52.396;16.796;2022-08-03T07:54:52;101882.50;;;29.60;43.78
44044;BME280;29709;52.396;16.796;2022-08-03T07:58:00;101865.59;;;29.70;43.08
44044;BME280;29709;52.396;16.796;2022-08-03T08:01:29;101877.17;;;29.69;42.64
44044;BME280;29709;52.396;16.796;2022-08-03T08:06:47;101873.70;;;29.94;42.73
44044;BME280;29709;52.396;16.796;2022-08-03T08:09:50;101861.45;;;29.88;42.46
44044;BME280;29709;52.396;16.796;2022-08-03T08:12:54;101874.55;;;29.94;42.59
44044;BME280;29709;52.396;16.796;2022-08-03T08:16:00;101867.87;;;30.10;42.45
44044;BME280;29709;52.396;16.796;2022-08-03T08:19:04;101866.63;;;30.33;41.94
44044;BME280;29709;52.396;16.796;2022-08-03T08:22:10;101865.22;;;30.36;41.85
44044;BME280;29709;52.396;16.796;2022-08-03T08:25:13;101865.84;;;30.48;41.59
44044;BME280;29709;52.396;16.796;2022-08-03T17:24:48;101647.49;;;32.64;31.98
44044;BME280;29709;52.396;16.796;2022-08-03T17:27:57;101650.05;;;32.60;30.79
44044;BME280;29709;52.396;16.796;2022-08-03T17:31:08;101647.81;;;32.57;31.26
44044;BME280;29709;52.396;16.796;2022-08-03T17:37:58;101662.11;;;32.47;31.77
44044;BME280;29709;52.396;16.796;2022-08-03T17:41:29;101659.58;;;32.40;32.49
44044;BME280;29709;52.396;16.796;2022-08-03T17:44:35;101664.77;;;32.33;32.77
44044;BME280;29709;52.396;16.796;2022-08-03T17:47:38;101667.04;;;32.26;32.40
44044;BME280;29709;52.396;16.796;2022-08-03T17:53:59;101661.70;;;32.09;33.24
44044;BME280;29709;52.396;16.796;2022-08-03T17:57:15;101661.20;;;32.02;33.38
44044;BME280;29709;52.396;16.796;2022-08-03T18:00:18;101662.95;;;31.93;33.28
44044;BME280;29709;52.396;16.796;2022-08-03T18:03:44;101662.98;;;31.83;34.39
44044;BME280;29709;52.396;16.796;2022-08-03T18:06:48;101666.98;;;31.72;34.22
44044;BME280;29709;52.396;16.796;2022-08-03T18:10:22;101672.14;;;31.59;34.17
44044;BME280;29709;52.396;16.796;2022-08-03T18:13:35;101667.62;;;31.48;34.51
44044;BME280;29709;52.396;16.796;2022-08-03T18:16:43;101664.21;;;31.36;34.47
44044;BME280;29709;52.396;16.796;2022-08-03T18:19:48;101667.35;;;31.24;34.57
44044;BME280;29709;52.396;16.796;2022-08-03T18:22:52;101666.77;;;31.12;35.01
44044;BME280;29709;52.396;16.796;2022-08-03T18:26:07;101675.88;;;30.99;34.85
44044;BME280;29709;52.396;16.796;2022-08-03T18:29:11;101673.60;;;30.86;35.32
44044;BME280;29709;52.396;16.796;2022-08-03T18:32:41;101676.13;;;30.72;36.05
44044;BME280;29709;52.396;16.796;2022-08-03T18:35:45;101670.41;;;30.57;36.04
44044;BME280;29709;52.396;16.796;2022-08-03T18:38:48;101679.76;;;30.47;36.54
44044;BME280;29709;52.396;16.796;2022-08-03T18:41:54;101687.10;;;30.38;36.50
44044;BME280;29709;52.396;16.796;2022-08-03T18:44:57;101681.41;;;30.28;36.49
44044;BME280;29709;52.396;16.796;2022-08-03T18:51:21;101693.20;;;30.04;37.34
44044;BME280;29709;52.396;16.796;2022-08-03T18:54:33;101701.38;;;29.96;37.16
44044;BME280;29709;52.396;16.796;2022-08-03T18:57:41;101699.05;;;29.82;37.47
44044;BME280;29709;52.396;16.796;2022-08-03T19:04:17;101695.94;;;29.42;38.84
44044;BME280;29709;52.396;16.796;2022-08-03T19:07:18;101700.32;;;29.22;39.39
44044;BME280;29709;52.396;16.796;2022-08-03T19:10:31;101700.18;;;29.07;40.24
44044;BME280;29709;52.396;16.796;2022-08-03T19:13:47;101707.43;;;28.93;39.74
44044;BME280;29709;52.396;16.796;2022-08-03T19:16:55;101706.41;;;28.77;40.52
44044;BME280;29709;52.396;16.796;2022-08-03T19:20:04;101711.43;;;28.70;39.85
44044;BME280;29709;52.396;16.796;2022-08-03T19:23:10;101703.80;;;28.70;39.79
44044;BME280;29709;52.396;16.796;2022-08-03T19:26:39;101710.47;;;28.59;40.55
44044;BME280;29709;52.396;16.796;2022-08-03T19:29:46;101713.23;;;28.54;40.89
44044;BME280;29709;52.396;16.796;2022-08-03T19:32:50;101718.29;;;28.52;40.72
44044;BME280;29709;52.396;16.796;2022-08-03T19:35:54;101709.51;;;28.49;40.58
44044;BME280;29709;52.396;16.796;2022-08-03T19:38:57;101712.80;;;28.40;40.56
44044;BME280;29709;52.396;16.796;2022-08-03T19:42:05;101710.44;;;28.32;41.12
44044;BME280;29709;52.396;16.796;2022-08-03T19:45:16;101714.58;;;28.25;42.06
44044;BME280;29709;52.396;16.796;2022-08-03T19:48:27;101703.73;;;28.16;42.60
44044;BME280;29709;52.396;16.796;2022-08-03T19:51:32;101712.98;;;28.12;41.80
44044;BME280;29709;52.396;16.796;2022-08-03T19:54:44;101711.15;;;28.01;42.28
44044;BME280;29709;52.396;16.796;2022-08-03T19:57:52;101707.68;;;27.94;43.00
44044;BME280;29709;52.396;16.796;2022-08-03T20:00:57;101713.24;;;27.88;43.21
44044;BME280;29709;52.396;16.796;2022-08-03T20:04:26;101719.88;;;27.77;43.75
44044;BME280;29709;52.396;16.796;2022-08-03T20:07:30;101717.59;;;27.74;43.00
44044;BME280;29709;52.396;16.796;2022-08-03T20:10:34;101721.76;;;27.72;44.01
44044;BME280;29709;52.396;16.796;2022-08-03T20:13:38;101714.08;;;27.67;44.15
44044;BME280;29709;52.396;16.796;2022-08-03T20:16:42;101720.22;;;27.64;44.51
44044;BME280;29709;52.396;16.796;2022-08-03T20:19:48;101723.48;;;27.56;42.76
44044;BME280;29709;52.396;16.796;2022-08-03T20:22:59;101730.68;;;27.47;44.80
44044;BME280;29709;52.396;16.796;2022-08-03T20:26:07;101718.12;;;27.38;43.26
44044;BME280;29709;52.396;16.796;2022-08-03T20:29:12;101719.07;;;27.26;45.14
44044;BME280;29709;52.396;16.796;2022-08-03T20:32:18;101723.27;;;27.24;45.48
44044;BME280;29709;52.396;16.796;2022-08-03T20:35:47;101724.54;;;27.16;45.29
44044;BME280;29709;52.396;16.796;2022-08-03T20:38:51;101726.17;;;27.12;45.73
44044;BME280;29709;52.396;16.796;2022-08-03T20:41:54;101724.73;;;27.10;45.73
44044;BME280;29709;52.396;16.796;2022-08-03T20:44:58;101719.23;;;27.03;44.55
44044;BME280;29709;52.396;16.796;2022-08-03T20:48:03;101729.80;;;26.96;46.33
44044;BME280;29709;52.396;16.796;2022-08-03T20:51:07;101726.04;;;26.90;46.24
44044;BME280;29709;52.396;16.796;2022-08-03T20:54:11;101725.94;;;26.85;44.96
44044;BME280;29709;52.396;16.796;2022-08-03T20:57:15;101731.13;;;26.76;46.94
44044;BME280;29709;52.396;16.796;2022-08-03T21:00:19;101736.95;;;26.70;46.91
44044;BME280;29709;52.396;16.796;2022-08-03T21:03:49;101744.45;;;26.64;47.43
44044;BME280;29709;52.396;16.796;2022-08-03T21:06:59;101736.64;;;26.55;47.33
44044;BME280;29709;52.396;16.796;2022-08-03T21:10:05;101745.02;;;26.50;47.05
44044;BME280;29709;52.396;16.796;2022-08-03T21:13:15;101741.81;;;26.46;47.40
44044;BME280;29709;52.396;16.796;2022-08-03T21:16:25;101733.63;;;26.33;48.29
44044;BME280;29709;52.396;16.796;2022-08-03T21:19:33;101745.30;;;26.25;48.14
44044;BME280;29709;52.396;16.796;2022-08-03T21:22:42;101737.26;;;26.16;48.62
44044;BME280;29709;52.396;16.796;2022-08-03T21:25:48;101738.74;;;26.07;49.03
44044;BME280;29709;52.396;16.796;2022-08-03T21:29:17;101744.16;;;25.97;49.78
44044;BME280;29709;52.396;16.796;2022-08-03T21:32:21;101745.74;;;25.93;48.73
44044;BME280;29709;52.396;16.796;2022-08-03T21:35:25;101744.29;;;25.90;48.93
44044;BME280;29709;52.396;16.796;2022-08-03T21:38:28;101742.32;;;25.91;48.86
44044;BME280;29709;52.396;16.796;2022-08-03T21:41:35;101754.09;;;25.88;48.90
44044;BME280;29709;52.396;16.796;2022-08-03T21:44:39;101745.76;;;25.81;49.19
44044;BME280;29709;52.396;16.796;2022-08-03T21:47:43;101737.34;;;25.70;49.31
44044;BME280;29709;52.396;16.796;2022-08-03T21:50:48;101745.65;;;25.65;49.81
44044;BME280;29709;52.396;16.796;2022-08-03T21:53:52;101746.11;;;25.61;49.72
44044;BME280;29709;52.396;16.796;2022-08-03T21:57:23;101746.00;;;25.56;49.85
44044;BME280;29709;52.396;16.796;2022-08-03T22:00:27;101742.34;;;25.56;48.81
44044;BME280;29709;52.396;16.796;2022-08-03T22:03:30;101745.27;;;25.49;49.08
44044;BME280;29709;52.396;16.796;2022-08-03T22:06:34;101751.25;;;25.41;50.67
44044;BME280;29709;52.396;16.796;2022-08-03T22:09:37;101750.88;;;25.38;50.38
44044;BME280;29709;52.396;16.796;2022-08-03T22:12:40;101749.04;;;25.31;49.29
44044;BME280;29709;52.396;16.796;2022-08-03T22:15:46;101761.03;;;25.27;49.02
44044;BME280;29709;52.396;16.796;2022-08-03T22:18:52;101757.86;;;25.23;50.78
44044;BME280;29709;52.396;16.796;2022-08-03T22:21:57;101747.92;;;25.21;50.88
44044;BME280;29709;52.396;16.796;2022-08-03T22:25:28;101753.69;;;25.14;51.09
44044;BME280;29709;52.396;16.796;2022-08-03T22:28:33;101751.58;;;25.10;51.98
44044;BME280;29709;52.396;16.796;2022-08-03T22:31:37;101750.12;;;25.07;49.65
44044;BME280;29709;52.396;16.796;2022-08-03T22:34:47;101749.51;;;25.05;51.25
44044;BME280;29709;52.396;16.796;2022-08-03T22:37:53;101751.47;;;25.04;49.67
44044;BME280;29709;52.396;16.796;2022-08-03T22:40:56;101759.66;;;25.06;51.10
44044;BME280;29709;52.396;16.796;2022-08-03T22:44:01;101756.48;;;25.02;49.85
44044;BME280;29709;52.396;16.796;2022-08-03T22:47:36;101758.25;;;24.97;49.99
44044;BME280;29709;52.396;16.796;2022-08-03T22:50:42;101763.02;;;24.96;50.35
44044;BME280;29709;52.396;16.796;2022-08-03T22:53:46;101761.92;;;24.97;50.50
44044;BME280;29709;52.396;16.796;2022-08-03T22:56:51;101763.63;;;24.98;50.38
44044;BME280;29709;52.396;16.796;2022-08-03T22:59:54;101774.52;;;24.95;51.62
44044;BME280;29709;52.396;16.796;2022-08-03T23:02:59;101771.70;;;24.95;50.41
44044;BME280;29709;52.396;16.796;2022-08-03T23:06:04;101767.42;;;24.92;50.54
44044;BME280;29709;52.396;16.796;2022-08-03T23:09:10;101768.98;;;24.88;50.38
44044;BME280;29709;52.396;16.796;2022-08-03T23:12:42;101764.19;;;24.77;50.46
44044;BME280;29709;52.396;16.796;2022-08-03T23:15:50;101775.67;;;24.75;50.83
44044;BME280;29709;52.396;16.796;2022-08-03T23:18:58;101770.78;;;24.71;52.03
44044;BME280;29709;52.396;16.796;2022-08-03T23:22:02;101778.35;;;24.70;50.51
44044;BME280;29709;52.396;16.796;2022-08-03T23:25:05;101787.24;;;24.67;51.82
44044;BME280;29709;52.396;16.796;2022-08-03T23:28:13;101783.69;;;24.60;51.16
44044;BME280;29709;52.396;16.796;2022-08-03T23:31:22;101789.32;;;24.60;50.84
44044;BME280;29709;52.396;16.796;2022-08-03T23:34:27;101783.77;;;24.54;51.58
44044;BME280;29709;52.396;16.796;2022-08-03T23:37:45;101779.73;;;24.50;51.85
44044;BME280;29709;52.396;16.796;2022-08-03T23:41:15;101788.94;;;24.38;52.54
44044;BME280;29709;52.396;16.796;2022-08-03T23:44:20;101779.51;;;24.33;53.08
44044;BME280;29709;52.396;16.796;2022-08-03T23:47:23;101778.45;;;24.27;53.24
44044;BME280;29709;52.396;16.796;2022-08-03T23:50:31;101779.17;;;24.23;52.21
